createdAt,value
2022-12-08T00:03:19.227Z,32.63
2022-12-08T00:08:20.889Z,34.08
2022-12-08T00:13:22.474Z,29.98
2022-12-08T00:18:23.991Z,32.20
2022-12-08T00:23:26.322Z,36.60
2022-12-08T00:28:27.886Z,33.28
2022-12-08T00:33:29.390Z,25.05
2022-12-08T00:38:31.008Z,22.50
2022-12-08T00:43:32.531Z,23.83
2022-12-08T00:48:34.130Z,25.08
2022-12-08T00:53:35.654Z,24.15
2022-12-08T00:58:37.186Z,21.00
2022-12-08T01:03:38.846Z,26.00
2022-12-08T01:08:41.439Z,26.63
2022-12-08T01:13:43.322Z,25.20
2022-12-08T01:18:44.917Z,27.00
2022-12-08T01:23:46.637Z,24.15
2022-12-08T01:28:49.260Z,24.90
2022-12-08T01:33:51.689Z,20.90
2022-12-08T01:38:54.414Z,22.48
2022-12-08T01:43:55.852Z,27.92
2022-12-08T01:49:03.411Z,19.13
2022-12-08T01:54:06.808Z,18.27
2022-12-08T01:59:09.786Z,16.77
2022-12-08T02:04:11.732Z,19.83
2022-12-08T02:09:14.661Z,19.50
2022-12-08T02:14:16.215Z,20.08
2022-12-08T02:19:56.828Z,18.52
2022-12-08T02:25:01.369Z,15.60
2022-12-08T02:30:15.030Z,24.05
2022-12-08T02:35:29.997Z,20.02
2022-12-08T02:41:10.445Z,22.80
2022-12-08T02:46:19.702Z,22.20
2022-12-08T02:51:21.230Z,17.63
2022-12-08T02:56:34.870Z,18.85
2022-12-08T03:02:00.757Z,16.20
2022-12-08T03:07:09.250Z,14.23
2022-12-08T03:12:39.090Z,13.40
2022-12-08T03:17:45.551Z,18.67
2022-12-08T03:22:50.472Z,19.40
2022-12-08T03:27:53.185Z,15.10
2022-12-08T03:33:17.943Z,14.52
2022-12-08T03:38:19.585Z,17.40
2022-12-08T03:43:21.073Z,15.05
2022-12-08T03:48:22.607Z,14.50
2022-12-08T03:53:24.186Z,11.65
2022-12-08T03:58:25.677Z,13.55
2022-12-08T04:03:27.278Z,11.38
2022-12-08T04:08:28.890Z,14.52
2022-12-08T04:13:30.450Z,12.30
2022-12-08T04:18:33.093Z,15.75
2022-12-08T04:23:34.633Z,14.07
2022-12-08T04:28:36.902Z,14.65
2022-12-08T04:33:38.431Z,14.48
2022-12-08T04:38:39.968Z,16.15
2022-12-08T04:43:41.475Z,16.98
2022-12-08T04:48:43.030Z,14.88
2022-12-08T04:53:46.919Z,14.60
2022-12-08T04:58:48.720Z,16.30
2022-12-08T05:03:50.202Z,15.93
2022-12-08T05:08:51.734Z,19.42
2022-12-08T05:13:53.264Z,13.98
2022-12-08T05:18:54.766Z,18.38
2022-12-08T05:23:56.289Z,19.83
2022-12-08T05:28:58.048Z,17.42
2022-12-08T05:34:03.209Z,22.35
2022-12-08T05:39:05.230Z,20.63
2022-12-08T05:44:07.882Z,24.45
2022-12-08T05:49:18.788Z,23.42
2022-12-08T05:54:20.339Z,29.17
2022-12-08T05:59:21.853Z,27.02
2022-12-08T06:04:23.423Z,24.60
2022-12-08T06:09:25.069Z,32.05
2022-12-08T06:14:26.597Z,28.80
2022-12-08T06:19:28.139Z,30.25
2022-12-08T06:24:29.674Z,31.85
2022-12-08T06:29:31.281Z,28.60
2022-12-08T06:34:32.795Z,36.92
2022-12-08T06:39:34.450Z,32.80
2022-12-08T06:44:35.999Z,26.67
2022-12-08T06:49:37.606Z,28.60
2022-12-08T06:54:39.531Z,31.13
2022-12-08T06:59:41.142Z,26.15
2022-12-08T07:04:43.030Z,25.60
2022-12-08T07:09:44.513Z,24.30
2022-12-08T07:14:46.161Z,26.52
2022-12-08T07:19:47.678Z,25.60
2022-12-08T07:24:49.260Z,25.73
2022-12-08T07:29:50.866Z,28.25
2022-12-08T07:34:52.479Z,20.20
2022-12-08T07:39:53.970Z,21.98
2022-12-08T07:44:55.507Z,26.25
2022-12-08T07:49:56.999Z,24.02
2022-12-08T07:54:58.604Z,27.80
2022-12-08T08:00:00.093Z,32.15
2022-12-08T08:05:02.058Z,26.80
2022-12-08T08:10:04.418Z,27.90
2022-12-08T08:15:08.408Z,24.90
2022-12-08T08:20:10.480Z,26.00
2022-12-08T08:25:12.078Z,30.23
2022-12-08T08:30:20.062Z,27.08
2022-12-08T08:35:22.348Z,24.50
2022-12-08T08:40:23.895Z,25.30
2022-12-08T08:45:25.546Z,24.65
2022-12-08T08:50:29.504Z,29.48
2022-12-08T08:55:34.467Z,31.75
2022-12-08T09:00:35.967Z,33.35
2022-12-08T09:05:39.019Z,34.95
2022-12-08T09:10:40.585Z,25.20
2022-12-08T09:15:42.132Z,26.52
2022-12-08T09:20:43.746Z,19.83
2022-12-08T09:25:45.451Z,17.55
2022-12-08T09:30:47.143Z,43.63
2022-12-08T09:35:55.012Z,16.15
2022-12-08T09:40:56.645Z,15.35
2022-12-08T09:46:00.206Z,11.52
2022-12-08T09:51:03.747Z,11.32
2022-12-08T09:56:16.974Z,12.20
2022-12-08T10:01:21.146Z,11.93
2022-12-08T10:06:36.287Z,11.05
2022-12-08T10:11:54.169Z,7.28
2022-12-08T10:17:04.548Z,7.18
2022-12-08T10:22:18.841Z,6.75
2022-12-08T10:27:20.878Z,8.80
2022-12-08T10:32:24.303Z,8.13
2022-12-08T10:37:25.828Z,8.90
2022-12-08T10:42:35.561Z,9.18
2022-12-08T10:47:42.514Z,12.95
2022-12-08T10:52:54.339Z,16.73
2022-12-08T10:57:56.014Z,18.27
2022-12-08T11:03:00.228Z,15.45
2022-12-08T11:08:04.503Z,17.02
2022-12-08T11:13:18.490Z,17.85
2022-12-08T11:18:30.826Z,18.58
2022-12-08T11:23:44.773Z,14.07
2022-12-08T11:28:46.450Z,14.18
2022-12-08T11:33:49.341Z,12.95
2022-12-08T11:38:54.643Z,12.45
2022-12-08T11:44:10.887Z,15.77
2022-12-08T11:49:14.352Z,13.38
2022-12-08T11:54:20.357Z,14.45
2022-12-08T11:59:29.336Z,12.30
2022-12-08T12:04:52.449Z,12.85
2022-12-08T12:10:27.731Z,12.65
2022-12-08T12:15:46.897Z,11.60
2022-12-08T12:21:05.648Z,15.90
2022-12-08T12:26:16.103Z,12.45
2022-12-08T12:31:21.790Z,15.25
2022-12-08T12:36:23.775Z,13.18
2022-12-08T12:41:29.469Z,14.40
2022-12-08T12:46:46.312Z,15.50
2022-12-08T12:51:54.692Z,16.48
2022-12-08T12:57:05.280Z,8.75
2022-12-08T13:02:28.505Z,9.73
2022-12-08T13:07:36.593Z,9.63
2022-12-08T13:12:38.206Z,11.60
2022-12-08T13:17:45.788Z,12.73
2022-12-08T13:22:53.085Z,14.02
2022-12-08T13:27:54.895Z,9.52
2022-12-08T13:38:26.288Z,11.15
2022-12-08T13:44:50.796Z,13.07
2022-12-08T14:00:28.679Z,13.13
2022-12-08T14:06:10.637Z,12.20
2022-12-08T14:11:06.105Z,9.93
2022-12-08T14:16:26.722Z,9.75
2022-12-08T14:21:32.795Z,8.00
2022-12-08T14:26:37.851Z,8.57
2022-12-08T14:31:40.251Z,12.05
2022-12-08T14:36:41.856Z,10.15
2022-12-08T14:41:58.895Z,9.88
2022-12-08T14:52:11.738Z,9.45
2022-12-08T14:57:15.076Z,10.48
2022-12-08T15:02:16.522Z,9.85
2022-12-08T15:07:22.587Z,13.38
2022-12-08T15:12:27.688Z,10.63
2022-12-08T15:17:48.134Z,8.27
2022-12-08T15:22:49.663Z,11.30
2022-12-08T15:27:52.315Z,9.50
2022-12-08T15:32:54.374Z,7.78
2022-12-08T15:37:56.071Z,12.00
2022-12-08T15:42:57.691Z,8.95
2022-12-08T15:47:59.253Z,9.57
2022-12-08T15:53:00.928Z,7.85
2022-12-08T15:58:52.300Z,14.43
2022-12-08T16:04:14.234Z,8.68
2022-12-08T16:09:00.595Z,10.65
2022-12-08T16:14:47.419Z,9.30
2022-12-08T16:19:32.950Z,9.85
2022-12-08T16:24:34.573Z,8.32
2022-12-08T16:42:35.058Z,8.32
2022-12-08T16:47:37.966Z,5.65
2022-12-08T16:52:39.567Z,8.60
2022-12-08T16:57:41.857Z,8.38
2022-12-08T17:02:43.998Z,8.25
2022-12-08T17:07:47.193Z,7.82
2022-12-08T17:12:50.403Z,8.27
2022-12-08T17:17:52.947Z,11.57
2022-12-08T17:22:56.541Z,8.32
2022-12-08T17:27:58.227Z,11.95
2022-12-08T17:32:59.818Z,7.35
2022-12-08T17:38:01.491Z,10.07
2022-12-08T17:43:03.109Z,9.88
2022-12-08T17:48:04.865Z,8.73
2022-12-08T17:53:06.779Z,14.82
2022-12-08T17:58:08.790Z,10.35
2022-12-08T18:03:10.380Z,9.63
2022-12-08T18:08:12.458Z,10.15
2022-12-08T18:13:14.129Z,11.48
2022-12-08T18:18:15.804Z,9.20
2022-12-08T18:23:17.787Z,9.68
2022-12-08T18:28:19.492Z,9.93
2022-12-08T18:33:21.150Z,8.75
2022-12-08T18:38:22.715Z,8.77
2022-12-08T18:43:24.363Z,12.10
2022-12-08T18:48:26.013Z,9.32
2022-12-08T18:53:27.645Z,14.13
2022-12-08T18:58:29.217Z,13.32
2022-12-08T19:03:30.819Z,14.68
2022-12-08T19:08:32.893Z,12.35
2022-12-08T19:13:34.589Z,13.80
2022-12-08T19:18:36.238Z,11.82
2022-12-08T19:23:41.460Z,11.80
2022-12-08T19:28:43.546Z,10.88
2022-12-08T19:33:45.216Z,12.07
2022-12-08T19:38:47.263Z,10.80
2022-12-08T19:43:48.786Z,8.57
2022-12-08T19:48:50.375Z,10.10
2022-12-08T19:53:52.057Z,10.55
2022-12-08T19:58:53.666Z,11.50
2022-12-08T20:03:55.261Z,10.13
2022-12-08T20:08:56.885Z,11.30
2022-12-08T20:13:58.456Z,11.82
2022-12-08T20:19:00.543Z,8.93
2022-12-08T20:24:02.256Z,10.20
2022-12-08T20:29:04.176Z,9.55
2022-12-08T20:53:34.176Z,14.90
2022-12-08T20:58:40.653Z,12.13
2022-12-08T21:03:43.564Z,11.05
2022-12-08T21:08:45.267Z,13.43
2022-12-08T21:13:47.043Z,10.38
2022-12-08T21:18:48.662Z,12.60
2022-12-08T21:23:50.462Z,16.15
2022-12-08T21:28:53.157Z,10.15
2022-12-08T21:33:54.766Z,13.13
2022-12-08T21:38:56.542Z,15.85
2022-12-08T21:43:58.254Z,12.90
2022-12-08T21:48:59.926Z,12.82
2022-12-08T21:54:01.695Z,13.48
2022-12-08T21:59:03.860Z,12.48
2022-12-08T22:04:27.654Z,12.75
2022-12-08T22:09:29.584Z,12.93
2022-12-08T22:14:31.640Z,12.23
2022-12-08T22:19:33.694Z,11.30
2022-12-08T22:24:35.533Z,18.88
2022-12-08T22:29:37.238Z,14.13
2022-12-08T22:34:38.776Z,14.50
2022-12-08T22:39:40.270Z,14.48
2022-12-08T22:44:41.761Z,11.57
2022-12-08T22:49:43.447Z,11.75
2022-12-08T22:54:45.074Z,16.80
2022-12-08T22:59:46.686Z,10.63
2022-12-08T23:04:48.721Z,14.80
2022-12-08T23:09:50.325Z,14.45
2022-12-08T23:14:51.908Z,14.52
2022-12-08T23:19:53.435Z,10.73
2022-12-08T23:24:55.314Z,11.65
2022-12-08T23:29:57.098Z,13.05
2022-12-08T23:34:58.988Z,14.18
2022-12-08T23:40:00.587Z,12.43
2022-12-08T23:45:02.399Z,13.75
2022-12-08T23:50:05.226Z,14.55
2022-12-08T23:55:07.853Z,13.77
